Time;durP1;ratioP1;P1;durP2;ratioP2;P2;SDS_P1;SDS_P2;PMS_P1;PMS_P2;Temp;Humidity;BMP_temperature;BMP_pressure;BME280_temperature;BME280_humidity;BME280_pressure;Samples;Min_cycle;Max_cycle;Signal;HPM_P1;HPM_P2
2023/02/25 00:01:49;;;;;;;28.90;17.40;;;;;;;2.80;97.76;98313.53;105746;1251;61305;-73
2023/02/25 00:04:31;;;;;;;27.40;16.90;;;;;;;2.82;97.65;98322.78;105802;1256;72696;-74
2023/02/25 00:07:21;;;;;;;31.00;16.20;;;;;;;2.83;97.59;98314.21;105682;1261;72013;-73
2023/02/25 00:09:53;;;;;;;;;;;;;;;2.80;97.86;98316.15;105832;1254;72943;-75
2023/02/25 00:12:22;;;;;;;26.00;17.00;;;;;;;2.83;97.65;98310.92;106128;1252;60528;-73
2023/02/25 00:14:50;;;;;;;31.40;17.80;;;;;;;2.84;97.55;98301.55;106123;1251;60459;-73
2023/02/25 00:17:19;;;;;;;29.30;18.10;;;;;;;2.79;97.81;98312.55;106000;1256;73726;-70
2023/02/25 00:19:49;;;;;;;22.80;15.90;;;;;;;2.79;97.93;98289.29;105802;1255;70234;-73
2023/02/25 00:22:20;;;;;;;25.30;17.10;;;;;;;2.84;97.86;98298.44;105757;1257;72897;-71
2023/02/25 00:24:52;;;;;;;26.50;17.40;;;;;;;2.80;97.92;98286.44;105814;1251;61639;-72
2023/02/25 00:27:21;;;;;;;27.30;18.20;;;;;;;2.79;97.81;98298.56;105793;1255;61156;-73
2023/02/25 00:29:53;;;;;;;25.30;16.80;;;;;;;2.84;97.68;98291.27;105762;1251;73007;-72
2023/02/25 00:32:21;;;;;;;24.70;16.80;;;;;;;2.87;97.63;98278.23;106122;1257;70713;-71
2023/02/25 00:34:50;;;;;;;27.70;18.80;;;;;;;2.83;97.91;98290.52;106532;1251;72236;-72
2023/02/25 00:37:19;;;;;;;29.70;17.10;;;;;;;2.82;97.84;98279.71;106796;1254;61380;-72
2023/02/25 00:39:47;;;;;;;26.70;19.90;;;;;;;2.89;97.57;98281.48;106747;1251;60594;-72
2023/02/25 00:42:16;;;;;;;31.70;17.80;;;;;;;2.86;97.35;98274.95;107560;1251;73821;-72
2023/02/25 00:44:45;;;;;;;29.10;18.40;;;;;;;2.88;97.63;98271.48;108642;1251;68267;-75
2023/02/25 00:47:16;;;;;;;29.10;18.10;;;;;;;2.93;97.51;98265.34;108549;1251;72693;-75
2023/02/25 00:49:46;;;;;;;24.50;18.00;;;;;;;2.94;97.64;98276.77;108898;1251;60074;-77
2023/02/25 00:52:14;;;;;;;27.20;17.90;;;;;;;2.91;97.50;98258.74;109464;1253;60188;-76
2023/02/25 00:54:42;;;;;;;26.00;18.60;;;;;;;2.96;97.53;98253.27;107997;1256;73016;-72
2023/02/25 00:57:11;;;;;;;28.90;18.00;;;;;;;3.03;97.32;98250.17;107703;1256;70319;-72
2023/02/25 00:59:40;;;;;;;25.40;17.60;;;;;;;2.99;97.36;98250.58;107021;1258;71720;-73
2023/02/25 01:02:08;;;;;;;26.40;18.50;;;;;;;2.98;97.37;98256.62;107193;1257;61830;-72
2023/02/25 01:04:37;;;;;;;30.10;17.90;;;;;;;3.05;96.96;98244.39;107442;1251;59525;-73
2023/02/25 01:07:07;;;;;;;25.70;17.80;;;;;;;3.06;96.85;98249.80;107526;1251;73677;-72
2023/02/25 01:09:35;;;;;;;29.50;17.90;;;;;;;3.01;97.17;98249.84;107458;1251;71402;-72
2023/02/25 01:12:04;;;;;;;35.20;17.70;;;;;;;3.03;97.38;98257.47;109196;1251;72758;-74
2023/02/25 01:14:32;;;;;;;27.10;17.20;;;;;;;3.12;97.07;98247.14;109441;1251;61656;-77
2023/02/25 01:17:01;;;;;;;25.20;18.20;;;;;;;3.12;96.91;98240.98;109512;1253;60309;-78
2023/02/25 01:19:32;;;;;;;27.90;18.20;;;;;;;3.04;97.14;98238.02;109735;1251;74166;-73
2023/02/25 01:22:01;;;;;;;23.70;16.20;;;;;;;3.06;97.09;98232.90;109538;1251;69909;-74
2023/02/25 01:24:32;;;;;;;23.00;17.10;;;;;;;3.13;96.69;98236.00;109558;1251;70667;-74
2023/02/25 01:27:01;;;;;;;28.10;17.60;;;;;;;3.10;96.69;98232.98;109696;1251;60494;-74
2023/02/25 01:29:34;;;;;;;28.90;18.10;;;;;;;3.04;96.61;98224.67;109741;1251;59415;-74
2023/02/25 01:32:02;;;;;;;27.40;18.40;;;;;;;3.05;96.77;98222.61;109747;1251;71473;-74
2023/02/25 01:34:32;;;;;;;29.00;18.00;;;;;;;3.04;96.93;98227.69;109649;1251;70183;-73
2023/02/25 01:37:04;;;;;;;27.70;17.90;;;;;;;2.99;96.97;98210.71;109649;1251;71564;-72
2023/02/25 01:39:36;;;;;;;27.70;16.60;;;;;;;3.06;96.78;98218.68;109559;1251;61188;-76
2023/02/25 01:42:11;;;;;;;41.00;19.20;;;;;;;3.09;96.58;98209.97;109272;1251;58351;-78
2023/02/25 01:45:11;;;;;;;29.30;18.60;;;;;;;3.02;96.76;98209.64;109295;1251;72745;-75
2023/02/25 01:47:39;;;;;;;28.10;18.60;;;;;;;3.00;97.14;98208.66;109330;1251;71188;-79
2023/02/25 01:50:09;;;;;;;28.80;19.20;;;;;;;3.06;96.66;98206.84;109286;1251;72851;-76
2023/02/25 01:52:37;;;;;;;29.40;19.10;;;;;;;3.08;96.65;98194.34;109190;1251;60936;-73
2023/02/25 01:55:08;;;;;;;27.80;20.20;;;;;;;3.05;96.95;98180.17;107271;1257;60526;-70
2023/02/25 01:57:37;;;;;;;27.20;19.30;;;;;;;3.00;97.12;98187.00;106463;1254;73573;-77
2023/02/25 02:00:11;;;;;;;29.50;18.20;;;;;;;3.03;97.04;98177.20;106702;1251;69997;-72
2023/02/25 02:02:43;;;;;;;28.00;18.50;;;;;;;3.06;96.61;98184.64;106509;1255;70965;-75
2023/02/25 02:05:12;;;;;;;26.90;18.80;;;;;;;3.01;96.68;98180.58;106170;1251;61392;-72
2023/02/25 02:07:42;;;;;;;28.40;19.00;;;;;;;2.97;97.02;98179.97;106576;1251;60615;-74
2023/02/25 02:10:11;;;;;;;29.20;20.00;;;;;;;2.96;96.94;98178.60;106412;1257;74112;-74
2023/02/25 02:12:41;;;;;;;25.80;18.50;;;;;;;2.93;96.97;98181.46;106361;1254;70640;-72
2023/02/25 02:15:12;;;;;;;30.50;20.00;;;;;;;2.87;97.47;98179.77;106171;1256;72174;-71
2023/02/25 02:17:55;;;;;;;28.30;18.20;;;;;;;2.86;97.56;98178.35;106325;1251;62201;-72
2023/02/25 02:20:43;;;;;;;27.10;20.00;;;;;;;2.87;97.71;98170.65;106389;1251;60555;-73
2023/02/25 02:23:39;;;;;;;27.30;20.00;;;;;;;2.82;97.85;98168.57;106754;1252;73552;-75
2023/02/25 02:26:36;;;;;;;28.80;19.40;;;;;;;2.85;97.97;98174.15;106680;1254;70514;-74
2023/02/25 02:29:26;;;;;;;31.10;19.60;;;;;;;2.86;97.77;98167.37;106933;1251;72056;-76
2023/02/25 02:32:14;;;;;;;25.90;19.40;;;;;;;2.79;98.07;98165.14;106813;1251;62864;-76
2023/02/25 02:35:03;;;;;;;29.10;19.30;;;;;;;2.83;97.77;98164.23;106814;1256;60403;-76
2023/02/25 02:37:43;;;;;;;30.20;19.70;;;;;;;2.83;97.98;98166.34;106752;1251;73537;-76
2023/02/25 02:40:18;;;;;;;27.00;19.20;;;;;;;2.76;98.10;98159.52;106187;1254;70918;-73
2023/02/25 02:42:50;;;;;;;30.60;18.10;;;;;;;2.79;98.13;98165.00;106419;1257;72371;-75
2023/02/25 02:45:25;;;;;;;26.10;18.60;;;;;;;2.79;98.13;98156.25;106488;1251;61594;-73
2023/02/25 02:47:57;;;;;;;29.40;21.40;;;;;;;2.73;98.42;98154.56;106238;1254;60462;-76
2023/02/25 02:50:39;;;;;;;28.40;19.10;;;;;;;2.74;98.52;98131.92;106319;1254;73803;-75
2023/02/25 02:53:15;;;;;;;30.30;20.30;;;;;;;2.75;98.29;98132.48;107241;1251;70406;-76
2023/02/25 02:55:46;;;;;;;33.90;19.90;;;;;;;2.69;98.43;98126.67;107875;1251;70558;-79
2023/02/25 02:58:22;;;;;;;27.90;19.00;;;;;;;2.71;98.51;98124.75;107784;1251;60341;-78
2023/02/25 03:00:54;;;;;;;28.50;19.90;;;;;;;2.77;98.06;98128.31;107226;1258;60295;-75
2023/02/25 03:03:34;;;;;;;33.20;22.00;;;;;;;2.72;98.07;98126.85;107677;1251;73800;-81
2023/02/25 03:06:16;;;;;;;27.70;19.80;;;;;;;2.67;98.55;98121.08;107091;1251;69304;-79
2023/02/25 03:08:58;;;;;;;29.20;20.20;;;;;;;2.71;98.07;98122.56;106913;1257;72938;-78
2023/02/25 03:11:26;;;;;;;30.60;20.70;;;;;;;2.67;98.26;98118.80;107232;1251;60892;-74
2023/02/25 03:13:58;;;;;;;33.00;19.70;;;;;;;2.65;98.44;98115.72;107093;1251;60536;-76
2023/02/25 03:16:52;;;;;;;30.90;20.80;;;;;;;2.69;98.16;98113.53;106493;1251;73776;-75
2023/02/25 03:19:28;;;;;;;31.20;19.90;;;;;;;2.62;98.48;98113.57;106972;1251;70410;-74
2023/02/25 03:22:00;;;;;;;28.60;20.30;;;;;;;2.62;98.63;98121.31;107331;1251;73686;-73
2023/02/25 03:25:01;;;;;;;35.30;22.50;;;;;;;2.66;98.61;98112.28;107405;1251;60338;-73
2023/02/25 03:27:38;;;;;;;31.70;21.60;;;;;;;2.59;98.97;98116.38;107545;1252;60539;-74
2023/02/25 03:30:11;;;;;;;30.80;20.20;;;;;;;2.63;99.16;98113.09;106580;1252;74410;-78
2023/02/25 03:32:46;;;;;;;35.90;22.00;;;;;;;2.68;99.03;98109.30;106193;1251;69776;-74
2023/02/25 03:35:18;;;;;;;33.10;22.30;;;;;;;2.63;99.17;98105.95;106333;1256;72492;-77
2023/02/25 03:37:49;;;;;;;35.70;23.00;;;;;;;2.65;99.40;98102.61;106397;1259;60396;-74
2023/02/25 03:40:17;;;;;;;29.90;22.50;;;;;;;2.71;99.17;98105.95;106434;1251;60432;-74
2023/02/25 03:42:52;;;;;;;30.70;21.60;;;;;;;2.68;99.20;98109.83;106307;1254;75003;-78
2023/02/25 03:45:21;;;;;;;36.50;23.50;;;;;;;2.64;99.36;98109.33;106373;1251;70582;-73
2023/02/25 03:47:49;;;;;;;30.60;22.30;;;;;;;2.71;99.20;98110.53;106466;1257;70870;-75
2023/02/25 03:50:27;;;;;;;32.70;23.60;;;;;;;2.73;99.20;98100.02;106563;1257;61378;-77
2023/02/25 03:53:18;;;;;;;34.50;23.80;;;;;;;2.67;99.26;98097.48;106066;1251;62975;-76
2023/02/25 03:55:51;;;;;;;31.90;22.30;;;;;;;2.70;99.43;98101.61;106295;1251;72904;-78
2023/02/25 03:58:20;;;;;;;39.70;26.10;;;;;;;2.72;99.34;98096.51;106630;1253;70679;-76
2023/02/25 04:00:55;;;;;;;37.80;24.80;;;;;;;2.68;99.44;98091.08;108328;1253;72478;-77
2023/02/25 04:03:26;;;;;;;33.90;24.20;;;;;;;2.74;99.22;98094.16;107048;1254;60886;-75
2023/02/25 04:05:54;;;;;;;36.50;24.60;;;;;;;2.76;99.26;98092.15;106817;1254;60483;-78
2023/02/25 04:08:23;;;;;;;40.00;25.70;;;;;;;2.71;99.39;98079.59;107071;1253;72939;-78
2023/02/25 04:10:51;;;;;;;35.20;25.00;;;;;;;2.75;99.20;98079.86;106765;1257;69588;-75
2023/02/25 04:13:24;;;;;;;36.80;25.00;;;;;;;2.75;99.30;98085.27;106494;1254;73810;-74
2023/02/25 04:15:52;;;;;;;33.50;25.00;;;;;;;2.70;99.38;98079.39;106507;1254;60497;-74
2023/02/25 04:18:26;;;;;;;33.90;24.80;;;;;;;2.70;99.71;98075.33;106351;1254;61062;-73
2023/02/25 04:20:55;;;;;;;39.20;25.90;;;;;;;2.76;99.23;98075.08;106263;1255;72448;-73
2023/02/25 04:23:23;;;;;;;40.60;29.40;;;;;;;2.75;99.47;98070.63;106160;1256;71262;-71
2023/02/25 04:25:51;;;;;;;41.10;27.40;;;;;;;2.69;99.74;98075.65;106307;1254;74322;-71
2023/02/25 04:28:22;;;;;;;35.70;26.70;;;;;;;2.71;99.63;98056.14;106617;1254;60832;-69
2023/02/25 04:30:50;;;;;;;41.50;27.50;;;;;;;2.76;99.48;98061.44;106641;1253;60335;-73
2023/02/25 04:33:18;;;;;;;35.70;26.60;;;;;;;2.71;99.73;98054.61;106292;1254;73712;-74
2023/02/25 04:35:48;;;;;;;36.50;26.40;;;;;;;2.73;99.89;98044.80;106142;1254;69693;-73
2023/02/25 04:38:16;;;;;;;41.30;28.20;;;;;;;2.78;99.62;98045.36;106439;1257;70968;-74
2023/02/25 04:40:46;;;;;;;46.50;29.60;;;;;;;2.74;99.91;98039.11;106683;1254;60421;-76
2023/02/25 04:43:14;;;;;;;37.60;26.50;;;;;;;2.70;99.97;98039.33;106803;1254;60505;-74
2023/02/25 04:45:45;;;;;;;33.50;25.80;;;;;;;2.77;99.94;98041.38;106580;1253;74813;-75
2023/02/25 04:48:14;;;;;;;37.90;27.80;;;;;;;2.83;99.80;98034.65;106298;1260;71273;-75
2023/02/25 04:50:43;;;;;;;43.70;27.90;;;;;;;2.79;99.73;98034.25;106487;1253;72640;-75
2023/02/25 04:53:12;;;;;;;36.50;25.30;;;;;;;2.73;99.85;98031.98;106385;1257;61515;-77
2023/02/25 04:55:41;;;;;;;41.60;29.10;;;;;;;2.78;99.69;98029.38;106601;1254;60467;-78
2023/02/25 04:58:09;;;;;;;41.30;28.20;;;;;;;2.76;99.76;98028.37;106403;1251;71884;-75
2023/02/25 05:00:39;;;;;;;40.30;26.80;;;;;;;2.74;99.88;98022.85;106835;1251;70514;-75
2023/02/25 05:03:07;;;;;;;43.30;28.00;;;;;;;2.80;99.81;98033.73;107049;1251;73945;-74
2023/02/25 05:05:36;;;;;;;41.20;29.20;;;;;;;2.81;99.83;98036.31;106711;1251;60384;-74
2023/02/25 05:08:07;;;;;;;44.30;29.50;;;;;;;2.75;100.00;98038.63;106324;1254;60574;-76
2023/02/25 05:10:36;;;;;;;39.30;26.70;;;;;;;2.79;99.85;98041.16;106422;1251;73779;-73
2023/02/25 05:13:04;;;;;;;38.50;27.50;;;;;;;2.84;99.74;98043.10;106511;1253;71292;-74
2023/02/25 05:15:35;;;;;;;39.60;27.90;;;;;;;2.81;99.82;98045.53;106342;1251;72278;-70
2023/02/25 05:18:05;;;;;;;38.80;27.40;;;;;;;2.79;100.00;98038.63;106521;1251;62069;-73
2023/02/25 05:20:33;;;;;;;38.70;28.20;;;;;;;2.83;99.72;98041.48;106675;1253;62247;-77
2023/02/25 05:23:02;;;;;;;39.40;27.20;;;;;;;2.83;99.80;98043.55;106674;1253;74551;-77
2023/02/25 05:25:32;;;;;;;40.80;28.10;;;;;;;2.78;99.88;98040.45;106483;1251;70966;-75
2023/02/25 05:28:01;;;;;;;41.40;28.20;;;;;;;2.79;99.81;98040.20;106601;1257;72476;-72
2023/02/25 05:30:29;;;;;;;43.70;28.20;;;;;;;2.84;99.81;98042.59;107470;1251;60984;-74
2023/02/25 05:33:01;;;;;;;42.90;29.80;;;;;;;2.86;99.86;98040.95;107596;1255;60332;-73
2023/02/25 05:35:31;;;;;;;39.70;27.90;;;;;;;2.83;99.96;98033.84;106979;1251;75110;-72
2023/02/25 05:37:59;;;;;;;40.80;27.60;;;;;;;2.83;99.91;98043.80;106941;1254;70299;-73
2023/02/25 05:40:28;;;;;;;39.30;29.00;;;;;;;2.87;99.66;98053.09;106584;1257;74529;-75
2023/02/25 05:42:56;;;;;;;39.50;28.20;;;;;;;2.84;99.93;98054.85;106629;1251;60518;-72
2023/02/25 05:45:24;;;;;;;38.40;27.80;;;;;;;2.83;99.97;98057.02;106739;1256;59210;-77
2023/02/25 05:47:53;;;;;;;44.20;29.70;;;;;;;2.88;99.91;98059.67;106685;1251;74036;-77
2023/02/25 05:50:22;;;;;;;41.50;27.90;;;;;;;2.84;99.77;98061.50;106466;1256;70373;-75
2023/02/25 05:52:51;;;;;;;39.50;26.70;;;;;;;2.85;99.90;98031.66;106301;1251;73611;-76
2023/02/25 05:55:20;;;;;;;38.00;27.60;;;;;;;2.90;99.93;98038.47;106341;1251;60920;-78
2023/02/25 05:57:48;;;;;;;43.40;29.10;;;;;;;2.87;99.76;98028.23;106817;1251;61310;-76
2023/02/25 06:00:20;;;;;;;43.80;28.90;;;;;;;2.85;99.92;98028.19;106182;1259;72734;-75
2023/02/25 06:02:49;;;;;;;45.70;28.90;;;;;;;2.91;99.92;98031.02;105886;1259;70381;-71
2023/02/25 06:05:17;;;;;;;44.30;30.20;;;;;;;2.91;99.51;98022.92;106049;1257;72376;-72
2023/02/25 06:07:47;;;;;;;38.60;27.90;;;;;;;2.87;99.68;98021.84;105811;1254;63198;-70
2023/02/25 06:10:16;;;;;;;39.90;28.60;;;;;;;2.92;99.80;98023.19;106060;1254;60450;-73
2023/02/25 06:12:45;;;;;;;46.20;31.50;;;;;;;2.92;99.56;98026.56;105826;1254;74860;-74
2023/02/25 06:15:14;;;;;;;37.30;27.00;;;;;;;2.86;99.82;98015.11;105945;1256;70283;-71
2023/02/25 06:17:42;;;;;;;37.60;27.00;;;;;;;2.90;99.83;98005.09;106137;1254;71468;-71
2023/02/25 06:20:15;;;;;;;40.80;28.60;;;;;;;2.98;99.95;97992.73;106008;1254;61600;-71
2023/02/25 06:22:43;;;;;;;43.40;30.40;;;;;;;2.97;99.91;97990.71;105970;1253;60479;-71
2023/02/25 06:25:11;;;;;;;44.80;29.20;;;;;;;2.95;99.88;97979.14;105747;1254;72010;-72
2023/02/25 06:27:40;;;;;;;41.80;28.20;;;;;;;3.05;99.71;97974.52;106084;1254;70297;-73
2023/02/25 06:30:09;;;;;;;43.10;31.00;;;;;;;3.09;99.61;97985.71;105974;1257;72629;-71
2023/02/25 06:32:39;;;;;;;46.70;30.20;;;;;;;3.06;99.39;97983.13;106144;1253;61951;-70
2023/02/25 06:35:08;;;;;;;40.70;27.80;;;;;;;3.14;99.22;97986.48;106372;1254;60494;-71
2023/02/25 06:37:38;;;;;;;44.60;30.40;;;;;;;3.21;99.07;97971.93;106167;1254;73352;-70
2023/02/25 06:40:08;;;;;;;43.40;29.10;;;;;;;3.18;98.96;97970.24;106076;1257;68538;-72
2023/02/25 06:42:37;;;;;;;41.00;28.80;;;;;;;3.18;99.07;97965.03;106130;1253;73870;-70
2023/02/25 06:45:08;;;;;;;36.50;27.20;;;;;;;3.27;98.79;97966.86;106001;1257;62505;-71
2023/02/25 06:47:36;;;;;;;40.40;29.10;;;;;;;3.35;98.57;97956.55;106065;1254;60432;-73
2023/02/25 06:50:06;;;;;;;48.90;29.80;;;;;;;3.33;98.78;97950.48;106112;1254;74272;-69
2023/02/25 06:52:34;;;;;;;43.20;29.40;;;;;;;3.36;98.68;97951.73;106390;1254;70647;-72
2023/02/25 06:55:05;;;;;;;41.90;30.10;;;;;;;3.45;98.36;97951.83;106405;1254;71182;-74
2023/02/25 06:57:34;;;;;;;44.90;30.50;;;;;;;3.46;98.48;97945.75;107082;1254;61391;-73
2023/02/25 07:00:04;;;;;;;43.70;29.90;;;;;;;3.46;98.42;97940.85;108011;1253;60422;-71
2023/02/25 07:02:34;;;;;;;45.50;30.40;;;;;;;3.58;98.07;97942.02;108275;1256;73846;-72
2023/02/25 07:05:04;;;;;;;44.60;30.50;;;;;;;3.60;97.33;97949.42;108876;1250;70787;-76
2023/02/25 07:07:34;;;;;;;44.10;29.80;;;;;;;3.58;97.44;97949.50;109054;1256;72007;-72
2023/02/25 07:10:02;;;;;;;42.80;28.70;;;;;;;3.65;97.35;97949.85;108565;1250;61438;-69
2023/02/25 07:12:37;;;;;;;38.20;28.30;;;;;;;3.72;96.74;97936.60;107931;1252;60310;-74
2023/02/25 07:15:06;;;;;;;41.90;30.50;;;;;;;3.72;96.72;97937.82;107783;1251;73401;-71
2023/02/25 07:17:36;;;;;;;44.00;30.70;;;;;;;3.68;96.77;97933.52;107204;1251;70876;-71
2023/02/25 07:20:08;;;;;;;49.60;31.40;;;;;;;3.72;96.38;97922.38;107488;1251;72657;-71
2023/02/25 07:22:37;;;;;;;46.30;30.80;;;;;;;3.69;96.77;97921.27;107248;1251;61342;-70
2023/02/25 07:25:07;;;;;;;42.20;29.30;;;;;;;3.74;96.71;97910.63;106995;1251;60425;-73
2023/02/25 07:27:40;;;;;;;41.50;27.70;;;;;;;3.84;96.12;97899.39;108667;1255;73832;-77
2023/02/25 07:30:17;;;;;;;42.00;28.50;;;;;;;3.84;96.14;97917.22;109083;1251;68886;-77
2023/02/25 07:32:46;;;;;;;41.60;28.10;;;;;;;3.86;95.88;97910.58;108742;1251;74441;-76
2023/02/25 07:35:21;;;;;;;40.40;28.80;;;;;;;3.97;95.71;97895.66;109444;1251;59112;-74
2023/02/25 07:37:51;;;;;;;46.60;32.80;;;;;;;4.03;95.61;97904.77;109375;1251;60323;-77
2023/02/25 07:40:21;;;;;;;39.30;28.40;;;;;;;4.06;94.95;97912.50;109020;1251;71562;-76
2023/02/25 07:42:50;;;;;;;43.30;30.60;;;;;;;4.15;94.32;97906.16;108792;1251;70111;-74
2023/02/25 07:45:23;;;;;;;;;;;;;;;4.17;94.63;97906.04;108792;1251;72316;-75
2023/02/25 07:47:52;;;;;;;39.10;28.50;;;;;;;4.19;94.35;97896.38;108856;1251;59633;-79
2023/02/25 07:50:27;;;;;;;39.90;28.90;;;;;;;4.33;93.89;97897.94;109207;1251;59464;-76
2023/02/25 07:52:56;;;;;;;41.90;28.30;;;;;;;4.42;93.22;97897.09;109205;1253;72388;-75
2023/02/25 07:55:25;;;;;;;43.40;29.80;;;;;;;4.39;93.08;97907.08;109470;1251;68499;-77
2023/02/25 07:57:54;;;;;;;46.80;27.80;;;;;;;4.44;93.20;97887.27;109532;1251;71976;-79
2023/02/25 08:00:23;;;;;;;46.10;30.10;;;;;;;4.55;92.97;97884.39;109231;1253;61955;-80
2023/02/25 08:02:52;;;;;;;42.00;31.60;;;;;;;4.59;92.45;97887.20;107706;1254;60441;-75
2023/02/25 08:05:23;;;;;;;44.00;30.70;;;;;;;4.54;92.19;97890.31;106624;1254;74779;-83
2023/02/25 08:07:55;;;;;;;44.80;29.10;;;;;;;4.58;92.56;97887.66;106932;1254;71699;-75
2023/02/25 08:10:23;;;;;;;41.30;27.60;;;;;;;4.69;92.38;97886.20;106969;1254;70741;-75
2023/02/25 08:12:57;;;;;;;42.00;30.70;;;;;;;4.77;92.15;97889.41;107135;1254;263561;-73
2023/02/25 08:17:01;;;;;;;44.90;30.20;;;;;;;4.79;91.91;97881.20;102916;1294;601111;-70
2023/02/25 08:19:30;;;;;;;44.70;30.70;;;;;;;4.81;91.50;97887.82;105385;1266;63028;-72
2023/02/25 08:21:59;;;;;;;48.60;31.30;;;;;;;4.84;91.03;97881.11;105094;1265;59687;-72
2023/02/25 08:24:28;;;;;;;50.40;32.90;;;;;;;4.78;91.44;97861.34;105035;1270;70992;-74
2023/02/25 08:26:57;;;;;;;44.20;31.30;;;;;;;4.78;91.77;97875.44;105119;1266;69258;-70
2023/02/25 08:29:25;;;;;;;45.30;31.20;;;;;;;4.81;91.16;97884.39;104404;1270;71416;-72
2023/02/25 08:31:52;;;;;;;50.20;33.30;;;;;;;4.77;91.32;97856.45;104712;1267;191369;-74
2023/02/25 08:34:21;;;;;;;46.00;31.10;;;;;;;4.75;91.61;97864.41;104864;1268;59503;-72
2023/02/25 08:36:49;;;;;;;42.80;30.90;;;;;;;4.82;91.20;97867.09;105202;1264;71092;-71
2023/02/25 08:39:17;;;;;;;41.90;31.50;;;;;;;4.86;90.99;97864.59;105300;1264;70220;-69
2023/02/25 08:41:46;;;;;;;46.10;31.90;;;;;;;4.84;91.30;97854.52;105341;1267;73420;-70
2023/02/25 08:44:14;;;;;;;45.10;30.40;;;;;;;4.85;91.30;97844.10;105298;1265;62139;-71
2023/02/25 08:46:42;;;;;;;49.00;32.30;;;;;;;4.98;91.14;97847.73;105315;1263;59714;-72
2023/02/25 08:49:10;;;;;;;49.90;32.40;;;;;;;5.08;91.32;97836.43;105227;1261;73875;-70
2023/02/25 08:51:39;;;;;;;44.70;31.50;;;;;;;5.11;90.65;97844.52;105487;1261;69165;-70
2023/02/25 08:54:11;;;;;;;41.70;29.10;;;;;;;5.27;90.93;97836.84;105374;1260;73145;-74
2023/02/25 08:56:43;;;;;;;42.80;30.70;;;;;;;5.44;89.64;97832.69;105520;1260;60671;-75
2023/02/25 08:59:13;;;;;;;46.10;32.90;;;;;;;5.48;89.12;97802.39;105643;1261;59630;-74
2023/02/25 09:01:45;;;;;;;42.50;31.00;;;;;;;5.50;89.43;97805.95;105725;1257;72408;-73
2023/02/25 09:04:18;;;;;;;44.40;30.70;;;;;;;5.66;89.04;97799.84;105626;1256;71426;-71
2023/02/25 09:06:47;;;;;;;47.30;33.00;;;;;;;5.88;88.82;97795.55;105610;1260;70683;-72
2023/02/25 09:09:16;;;;;;;43.10;30.50;;;;;;;5.99;88.41;97801.23;105463;1262;59639;-73
2023/02/25 09:11:44;;;;;;;43.70;31.00;;;;;;;6.11;87.73;97783.20;105731;1258;60225;-72
2023/02/25 09:14:15;;;;;;;41.70;31.70;;;;;;;6.36;87.93;97787.26;105657;1256;74565;-75
2023/02/25 09:16:43;;;;;;;41.10;32.80;;;;;;;6.53;86.65;97796.02;105536;1257;69507;-74
2023/02/25 09:19:14;;;;;;;45.30;32.20;;;;;;;6.65;86.09;97772.73;105457;1256;72876;-72
2023/02/25 09:21:49;;;;;;;45.40;30.30;;;;;;;6.80;85.74;97772.85;105483;1256;62689;-73
2023/02/25 09:24:18;;;;;;;41.80;30.50;;;;;;;7.05;85.21;97770.24;105609;1256;59839;-77
2023/02/25 09:26:46;;;;;;;41.90;32.80;;;;;;;7.22;84.77;97760.69;105467;1263;74254;-74
2023/02/25 09:29:16;;;;;;;44.00;35.00;;;;;;;7.42;84.83;97755.81;105692;1260;68120;-71
2023/02/25 09:31:44;;;;;;;40.50;30.90;;;;;;;7.74;83.97;97752.98;105528;1256;73946;-69
2023/02/25 09:34:14;;;;;;;39.60;31.10;;;;;;;8.09;81.66;97742.30;105192;1257;61902;-73
2023/02/25 09:36:43;;;;;;;37.00;30.00;;;;;;;8.29;80.52;97744.58;105653;1256;61087;-70
2023/02/25 09:39:12;;;;;;;43.00;32.20;;;;;;;8.41;79.19;97732.27;105580;1256;72977;-71
2023/02/25 09:42:00;;;;;;;43.70;32.90;;;;;;;8.57;77.85;97737.70;105518;1263;69330;-70
2023/02/25 09:44:35;;;;;;;40.40;30.10;;;;;;;8.72;77.31;97728.82;105693;1257;73712;-68
2023/02/25 09:47:18;;;;;;;36.50;28.00;;;;;;;9.02;77.41;97713.56;105255;1258;62878;-71
2023/02/25 09:49:55;;;;;;;36.30;29.60;;;;;;;9.39;76.13;97698.29;105649;1260;60407;-70
2023/02/25 09:52:30;;;;;;;38.10;29.70;;;;;;;9.66;74.60;97710.27;105345;1262;72002;-71
2023/02/25 09:55:15;;;;;;;32.20;28.00;;;;;;;9.89;74.34;97696.36;105498;1258;68982;-71
2023/02/25 09:58:18;;;;;;;31.70;26.80;;;;;;;10.16;72.56;97693.27;105831;1253;72026;-69
2023/02/25 10:00:53;;;;;;;29.30;23.90;;;;;;;10.45;71.37;97684.88;105464;1254;59777;-72
2023/02/25 10:03:55;;;;;;;30.20;25.40;;;;;;;10.74;70.94;97677.02;105934;1253;61270;-71
2023/02/25 10:06:37;;;;;;;29.00;25.10;;;;;;;11.11;69.48;97672.61;105844;1253;74242;-71
2023/02/25 10:09:16;;;;;;;27.70;24.60;;;;;;;11.40;67.69;97670.17;105722;1253;71345;-72
2023/02/25 10:11:52;;;;;;;28.20;23.90;;;;;;;11.52;66.52;97664.02;105887;1253;70444;-75
2023/02/25 10:14:30;;;;;;;28.80;25.50;;;;;;;11.72;66.29;97652.57;105985;1253;61228;-75
2023/02/25 10:17:17;;;;;;;27.40;24.50;;;;;;;12.03;66.09;97644.94;105764;1253;59639;-74
2023/02/25 10:20:04;;;;;;;29.20;24.90;;;;;;;12.56;64.30;97643.66;106078;1258;73183;-72
2023/02/25 10:23:15;;;;;;;27.90;23.40;;;;;;;12.96;62.92;97648.55;106319;1253;71523;-74
2023/02/25 10:25:51;;;;;;;28.60;23.50;;;;;;;13.14;61.67;97650.15;106235;1253;72812;-74
2023/02/25 10:28:19;;;;;;;26.50;23.60;;;;;;;13.25;61.87;97642.35;106763;1252;61542;-79
2023/02/25 10:31:02;;;;;;;29.40;22.00;;;;;;;13.25;61.20;97634.35;106260;1253;59750;-78
2023/02/25 10:33:36;;;;;;;25.10;22.40;;;;;;;13.07;61.37;97627.44;106121;1252;71698;-80
2023/02/25 10:36:15;;;;;;;23.80;21.20;;;;;;;12.88;61.59;97623.32;106209;1253;69570;-74
2023/02/25 10:38:45;;;;;;;26.60;20.80;;;;;;;12.73;61.53;97621.41;106368;1253;71293;-72
2023/02/25 10:41:14;;;;;;;23.90;19.80;;;;;;;12.76;61.51;97608.90;106113;1253;60724;-74
2023/02/25 10:43:43;;;;;;;22.80;19.70;;;;;;;12.89;60.98;97593.07;106355;1253;60812;-76
2023/02/25 10:46:16;;;;;;;22.20;18.90;;;;;;;13.14;61.56;97574.85;108330;1256;73324;-72
2023/02/25 10:48:59;;;;;;;24.50;20.50;;;;;;;13.65;61.00;97570.73;108240;1253;70025;-73
2023/02/25 10:51:29;;;;;;;22.00;19.70;;;;;;;14.20;58.84;97600.12;106403;1253;71623;-72
2023/02/25 10:53:57;;;;;;;21.60;19.20;;;;;;;14.33;57.79;97578.30;106164;1253;59936;-75
2023/02/25 10:56:30;;;;;;;21.60;19.10;;;;;;;14.28;57.76;97574.65;106044;1255;61328;-73
2023/02/25 10:59:18;;;;;;;20.70;18.50;;;;;;;14.30;57.99;97562.19;106136;1256;72581;-75
2023/02/25 11:01:47;;;;;;;19.30;17.40;;;;;;;14.43;58.11;97542.86;106105;1253;71122;-72
2023/02/25 11:04:22;;;;;;;19.90;17.60;;;;;;;14.60;57.38;97536.37;105891;1253;73073;-73
2023/02/25 11:06:52;;;;;;;19.40;17.40;;;;;;;14.62;56.36;97524.43;106030;1253;60897;-73
2023/02/25 11:09:20;;;;;;;20.20;18.00;;;;;;;14.43;56.80;97526.55;106023;1255;59628;-76
2023/02/25 11:11:55;;;;;;;22.20;19.30;;;;;;;14.05;58.15;97523.09;105904;1255;72412;-73
2023/02/25 11:14:27;;;;;;;21.10;18.80;;;;;;;13.62;58.64;97534.81;105505;1253;69855;-73
2023/02/25 11:17:15;;;;;;;25.40;19.00;;;;;;;13.09;59.03;97544.40;105646;1254;72621;-74
2023/02/25 11:19:57;;;;;;;23.80;17.80;;;;;;;12.48;60.55;97542.92;106677;1253;59864;-75
2023/02/25 11:22:38;;;;;;;28.70;19.00;;;;;;;11.90;62.18;97541.52;107128;1253;60072;-74
2023/02/25 11:25:14;;;;;;;20.70;17.80;;;;;;;11.42;63.45;97533.01;106159;1258;72666;-75
2023/02/25 11:27:43;;;;;;;23.80;17.90;;;;;;;11.05;64.71;97530.15;106026;1258;69008;-75
2023/02/25 11:30:24;;;;;;;22.90;18.80;;;;;;;10.76;65.73;97539.25;106022;1253;72905;-76
2023/02/25 11:32:53;;;;;;;20.90;18.00;;;;;;;10.48;66.69;97527.09;106331;1253;61130;-80
2023/02/25 11:35:28;;;;;;;24.00;19.10;;;;;;;10.22;67.65;97519.73;106904;1253;59746;-76
2023/02/25 11:37:58;;;;;;;21.70;17.30;;;;;;;10.05;68.01;97504.72;106083;1253;71270;-72
2023/02/25 11:40:32;;;;;;;22.00;18.10;;;;;;;9.98;68.76;97515.61;105810;1253;67990;-74
2023/02/25 11:43:32;;;;;;;21.20;18.70;;;;;;;9.92;68.91;97502.36;106139;1256;72456;-75